createdAt,value
2022-12-26T00:01:43.719Z,10.48
2022-12-26T00:04:49.603Z,10.46
2022-12-26T00:06:56.678Z,10.47
2022-12-26T00:09:23.161Z,10.48
2022-12-26T00:11:49.567Z,10.45
2022-12-26T00:14:17.107Z,10.45
2022-12-26T00:16:44.853Z,10.44
2022-12-26T00:19:11.359Z,10.47
2022-12-26T00:21:37.784Z,10.43
2022-12-26T00:24:04.430Z,10.48
2022-12-26T00:26:32.123Z,10.50
2022-12-26T00:28:58.880Z,10.50
2022-12-26T00:31:27.786Z,10.52
2022-12-26T00:33:54.695Z,10.50
2022-12-26T00:36:39.265Z,10.55
2022-12-26T00:39:05.672Z,10.51
2022-12-26T00:41:33.038Z,10.50
2022-12-26T00:43:59.650Z,10.51
2022-12-26T00:46:26.998Z,10.49
2022-12-26T00:48:53.462Z,10.48
2022-12-26T00:51:20.020Z,10.47
2022-12-26T00:53:46.519Z,10.47
2022-12-26T00:56:12.981Z,10.46
2022-12-26T00:58:40.510Z,10.44
2022-12-26T01:01:14.722Z,10.43
2022-12-26T01:03:41.902Z,10.42
2022-12-26T01:06:08.393Z,10.41
2022-12-26T01:08:34.862Z,10.41
2022-12-26T01:11:07.559Z,10.40
2022-12-26T01:13:34.368Z,10.41
2022-12-26T01:16:00.994Z,10.36
2022-12-26T01:18:27.619Z,10.35
2022-12-26T01:21:01.725Z,10.37
2022-12-26T01:23:28.154Z,10.38
2022-12-26T01:26:17.558Z,10.39
2022-12-26T01:28:40.992Z,10.41
2022-12-26T01:31:07.550Z,10.43
2022-12-26T01:33:34.076Z,10.43
2022-12-26T01:36:00.692Z,10.44
2022-12-26T01:38:27.155Z,10.43
2022-12-26T01:41:13.655Z,10.42
2022-12-26T01:43:56.242Z,10.42
2022-12-26T01:46:27.700Z,10.41
2022-12-26T01:48:55.444Z,10.39
2022-12-26T01:51:24.448Z,10.37
2022-12-26T01:53:54.081Z,10.35
2022-12-26T01:56:24.328Z,10.34
2022-12-26T01:58:54.755Z,10.35
2022-12-26T02:01:22.267Z,10.34
2022-12-26T02:04:07.447Z,10.33
2022-12-26T02:06:34.281Z,10.34
2022-12-26T02:09:01.066Z,10.37
2022-12-26T02:11:39.143Z,10.41
2022-12-26T02:14:07.340Z,10.44
2022-12-26T02:16:35.378Z,10.43
2022-12-26T02:19:02.145Z,10.46
2022-12-26T02:21:49.284Z,10.47
2022-12-26T02:24:51.766Z,10.50
2022-12-26T02:28:06.345Z,10.50
2022-12-26T02:30:46.637Z,10.52
2022-12-26T02:33:20.662Z,10.53
2022-12-26T02:36:05.656Z,10.51
2022-12-26T02:38:51.816Z,10.50
2022-12-26T02:41:38.248Z,10.52
2022-12-26T02:44:30.224Z,10.50
2022-12-26T02:47:06.115Z,10.49
2022-12-26T02:50:10.463Z,10.49
2022-12-26T02:53:20.559Z,10.48
2022-12-26T02:56:07.517Z,10.45
2022-12-26T02:59:00.407Z,10.43
2022-12-26T03:02:09.764Z,10.44
2022-12-26T03:04:55.395Z,10.44
2022-12-26T03:07:50.348Z,10.44
2022-12-26T03:10:39.340Z,10.45
2022-12-26T03:13:11.369Z,10.42
2022-12-26T03:16:01.549Z,10.43
2022-12-26T03:18:57.110Z,10.43
2022-12-26T03:21:18.125Z,10.43
2022-12-26T03:23:46.581Z,10.44
2022-12-26T03:26:36.009Z,10.44
2022-12-26T03:29:22.147Z,10.42
2022-12-26T03:31:48.557Z,10.38
2022-12-26T03:34:18.295Z,10.37
2022-12-26T03:37:16.651Z,10.34
2022-12-26T03:40:12.784Z,10.33
2022-12-26T03:43:13.914Z,10.32
2022-12-26T03:46:20.651Z,10.28
2022-12-26T03:49:18.118Z,10.26
2022-12-26T03:52:17.905Z,10.24
2022-12-26T03:55:12.064Z,10.24
2022-12-26T03:58:14.027Z,10.24
2022-12-26T04:01:00.677Z,10.22
2022-12-26T04:03:46.673Z,10.22
2022-12-26T04:06:45.454Z,10.20
2022-12-26T04:09:38.595Z,10.20
2022-12-26T04:12:24.609Z,10.20
2022-12-26T04:15:21.189Z,10.20
2022-12-26T04:18:15.330Z,10.21
2022-12-26T04:20:48.521Z,10.21
2022-12-26T04:23:41.248Z,10.21
2022-12-26T04:26:31.354Z,10.20
2022-12-26T04:29:16.363Z,10.19
2022-12-26T04:32:06.048Z,10.18
2022-12-26T04:35:02.650Z,10.18
2022-12-26T04:37:49.424Z,10.18
2022-12-26T04:40:38.090Z,10.16
2022-12-26T04:43:49.978Z,10.17
2022-12-26T04:46:10.588Z,10.17
2022-12-26T04:49:02.458Z,10.17
2022-12-26T04:51:29.000Z,10.16
2022-12-26T04:53:55.429Z,10.15
2022-12-26T04:56:21.866Z,10.14
2022-12-26T04:58:48.275Z,10.16
2022-12-26T05:01:34.498Z,10.16
2022-12-26T05:04:20.839Z,10.18
2022-12-26T05:07:05.887Z,10.14
2022-12-26T05:09:35.285Z,10.17
2022-12-26T05:12:06.427Z,10.17
2022-12-26T05:14:36.082Z,10.16
2022-12-26T05:17:22.457Z,10.16
2022-12-26T05:20:07.559Z,10.14
2022-12-26T05:22:53.368Z,10.13
2022-12-26T05:25:41.025Z,10.14
2022-12-26T05:28:30.252Z,10.13
2022-12-26T05:30:56.892Z,10.12
2022-12-26T05:33:41.967Z,10.10
2022-12-26T05:36:09.524Z,10.08
2022-12-26T05:38:36.876Z,10.05
2022-12-26T05:41:03.674Z,10.02
2022-12-26T05:43:30.093Z,10.00
2022-12-26T05:45:56.603Z,10.01
2022-12-26T05:48:23.014Z,9.97
2022-12-26T05:50:49.463Z,9.96
2022-12-26T05:53:15.924Z,9.95
2022-12-26T05:55:42.329Z,9.94
2022-12-26T05:58:08.745Z,9.94
2022-12-26T06:00:35.289Z,9.92
2022-12-26T06:03:03.766Z,9.92
2022-12-26T06:05:30.355Z,9.93
2022-12-26T06:07:56.792Z,9.94
2022-12-26T06:10:23.204Z,9.97
2022-12-26T06:12:49.623Z,9.99
2022-12-26T06:15:16.070Z,9.97
2022-12-26T06:17:42.508Z,10.00
2022-12-26T06:20:09.102Z,10.01
2022-12-26T06:22:35.564Z,10.01
2022-12-26T06:25:02.168Z,10.01
2022-12-26T06:27:28.607Z,10.00
2022-12-26T06:29:55.021Z,9.99
2022-12-26T06:32:21.435Z,9.99
2022-12-26T06:34:48.193Z,10.00
2022-12-26T06:37:14.596Z,10.01
2022-12-26T06:39:41.014Z,10.00
2022-12-26T06:42:07.454Z,10.03
2022-12-26T06:44:33.884Z,10.00
2022-12-26T06:47:01.427Z,10.02
2022-12-26T06:49:32.702Z,10.03
2022-12-26T06:51:59.711Z,10.05
2022-12-26T06:54:26.126Z,10.06
2022-12-26T06:56:52.571Z,10.07
2022-12-26T06:59:19.014Z,10.06
2022-12-26T07:01:45.588Z,10.05
2022-12-26T07:04:13.108Z,10.04
2022-12-26T07:06:39.710Z,10.05
2022-12-26T07:09:14.386Z,10.03
2022-12-26T07:11:43.172Z,10.00
2022-12-26T07:14:09.620Z,9.98
2022-12-26T07:16:37.766Z,9.96
2022-12-26T07:19:04.809Z,9.93
2022-12-26T07:21:37.960Z,9.90
2022-12-26T07:24:07.926Z,9.90
2022-12-26T07:26:34.365Z,9.91
2022-12-26T07:29:00.824Z,9.91
2022-12-26T07:31:30.219Z,9.93
2022-12-26T07:33:57.002Z,9.93
2022-12-26T07:36:25.099Z,9.94
2022-12-26T07:38:51.702Z,9.93
2022-12-26T07:41:36.912Z,9.93
2022-12-26T07:44:03.577Z,9.95
2022-12-26T07:46:30.216Z,9.96
2022-12-26T07:48:56.657Z,9.96
2022-12-26T07:51:23.118Z,9.95
2022-12-26T07:53:49.603Z,9.95
2022-12-26T07:56:16.244Z,9.96
2022-12-26T07:58:42.690Z,9.97
2022-12-26T08:01:09.297Z,9.98
2022-12-26T08:03:35.813Z,10.03
2022-12-26T08:06:02.263Z,10.07
2022-12-26T08:08:28.695Z,10.10
2022-12-26T08:11:03.461Z,10.13
2022-12-26T08:13:30.451Z,10.16
2022-12-26T08:15:57.462Z,10.18
2022-12-26T08:18:24.428Z,10.19
2022-12-26T08:20:50.883Z,10.23
2022-12-26T08:23:17.345Z,10.24
2022-12-26T08:25:43.831Z,10.27
2022-12-26T08:28:11.264Z,10.30
2022-12-26T08:30:40.104Z,10.32
2022-12-26T08:33:07.025Z,10.36
2022-12-26T08:35:34.868Z,10.39
2022-12-26T08:38:01.455Z,10.44
2022-12-26T08:40:42.496Z,10.46
2022-12-26T08:43:33.429Z,10.48
2022-12-26T08:46:09.345Z,10.49
2022-12-26T08:48:36.954Z,10.49
2022-12-26T08:51:09.038Z,10.49
2022-12-26T08:53:36.209Z,10.50
2022-12-26T08:56:05.067Z,10.51
2022-12-26T08:58:32.044Z,10.52
2022-12-26T09:01:13.703Z,10.55
2022-12-26T09:03:40.691Z,10.54
2022-12-26T09:06:07.715Z,10.54
2022-12-26T09:08:35.034Z,10.59
2022-12-26T09:11:05.552Z,10.59
2022-12-26T09:13:33.020Z,10.63
2022-12-26T09:16:05.697Z,10.64
2022-12-26T09:18:32.225Z,10.64
2022-12-26T09:21:06.769Z,10.67
2022-12-26T09:23:34.359Z,10.70
2022-12-26T09:26:09.245Z,10.72
2022-12-26T09:28:36.049Z,10.73
2022-12-26T09:31:04.644Z,10.72
2022-12-26T09:33:33.225Z,10.76
2022-12-26T09:36:04.555Z,10.76
2022-12-26T09:38:32.759Z,10.78
2022-12-26T09:41:13.903Z,10.78
2022-12-26T09:44:17.457Z,10.77
2022-12-26T09:46:53.992Z,10.79
2022-12-26T09:49:23.465Z,10.79
2022-12-26T09:51:57.255Z,10.80
2022-12-26T09:54:31.902Z,10.80
2022-12-26T09:57:03.390Z,10.82
2022-12-26T09:59:34.616Z,10.82
2022-12-26T10:02:01.241Z,10.81
2022-12-26T10:04:30.430Z,10.79
2022-12-26T10:07:06.382Z,10.83
2022-12-26T10:09:55.332Z,10.83
2022-12-26T10:12:35.434Z,10.84
2022-12-26T10:15:13.987Z,10.83
2022-12-26T10:17:58.885Z,10.80
2022-12-26T10:20:54.275Z,10.78
2022-12-26T10:23:39.759Z,10.75
2022-12-26T10:26:21.287Z,10.74
2022-12-26T10:28:53.809Z,10.76
2022-12-26T10:31:48.775Z,10.75
2022-12-26T10:34:23.427Z,10.77
2022-12-26T10:36:52.060Z,10.76
2022-12-26T10:39:27.876Z,10.78
2022-12-26T10:42:00.815Z,10.81
2022-12-26T10:44:28.171Z,10.83
2022-12-26T10:47:06.221Z,10.83
2022-12-26T10:49:32.631Z,10.85
2022-12-26T10:52:00.267Z,10.87
2022-12-26T10:54:27.742Z,10.88
2022-12-26T10:56:56.151Z,10.87
2022-12-26T10:59:30.637Z,10.91
2022-12-26T11:02:12.479Z,10.92
2022-12-26T11:05:10.452Z,10.97
2022-12-26T11:07:26.561Z,10.96
2022-12-26T11:09:58.423Z,10.96
2022-12-26T11:12:38.139Z,10.99
2022-12-26T11:15:07.934Z,11.04
2022-12-26T11:17:44.431Z,11.03
2022-12-26T11:20:16.768Z,11.08
2022-12-26T11:22:44.240Z,11.07
2022-12-26T11:25:10.788Z,11.09
2022-12-26T11:27:40.902Z,11.12
2022-12-26T11:30:13.838Z,11.13
2022-12-26T11:32:44.812Z,11.15
2022-12-26T11:35:23.221Z,11.14
2022-12-26T11:37:55.750Z,11.12
2022-12-26T11:40:24.986Z,11.11
2022-12-26T11:42:57.492Z,11.12
2022-12-26T11:45:26.765Z,11.11
2022-12-26T11:47:54.940Z,11.13
2022-12-26T11:50:23.251Z,11.12
2022-12-26T11:53:05.612Z,11.11
2022-12-26T11:55:35.475Z,11.14
2022-12-26T11:58:07.900Z,11.13
2022-12-26T12:00:38.690Z,11.13
2022-12-26T12:03:11.461Z,11.11
2022-12-26T12:05:55.182Z,11.10
2022-12-26T12:08:30.483Z,11.10
2022-12-26T12:11:04.510Z,11.08
2022-12-26T12:13:41.029Z,11.09
2022-12-26T12:16:46.139Z,11.08
2022-12-26T12:19:28.616Z,11.07
2022-12-26T12:22:06.964Z,11.09
2022-12-26T12:24:42.646Z,11.10
2022-12-26T12:27:21.855Z,11.13
2022-12-26T12:30:18.270Z,11.19
2022-12-26T12:32:57.383Z,11.19
2022-12-26T12:35:54.215Z,11.20
2022-12-26T12:38:39.182Z,11.24
2022-12-26T12:41:31.803Z,11.25
2022-12-26T12:44:14.467Z,11.26
2022-12-26T12:46:59.068Z,11.26
2022-12-26T12:49:34.476Z,11.28
2022-12-26T12:52:09.369Z,11.30
2022-12-26T12:54:54.147Z,11.28
2022-12-26T12:57:36.262Z,11.28
2022-12-26T13:00:21.596Z,11.32
2022-12-26T13:02:52.213Z,11.33
2022-12-26T13:05:21.837Z,11.32
2022-12-26T13:07:54.374Z,11.31
2022-12-26T13:10:34.515Z,11.31
2022-12-26T13:13:13.698Z,11.30
2022-12-26T13:15:46.315Z,11.30
2022-12-26T13:18:19.353Z,11.27
2022-12-26T13:20:53.745Z,11.24
2022-12-26T13:24:05.321Z,11.23
2022-12-26T13:26:39.101Z,11.22
2022-12-26T13:29:17.147Z,11.21
2022-12-26T13:31:44.578Z,11.21
2022-12-26T13:34:16.403Z,11.25
2022-12-26T13:36:49.521Z,11.24
2022-12-26T13:39:36.479Z,11.24
2022-12-26T13:42:57.001Z,11.26
2022-12-26T13:45:35.194Z,11.30
2022-12-26T13:48:22.771Z,11.29
2022-12-26T13:50:56.159Z,11.29
2022-12-26T13:53:26.018Z,11.30
2022-12-26T13:56:04.091Z,11.30
2022-12-26T13:59:07.634Z,11.28
2022-12-26T14:01:46.188Z,11.28
2022-12-26T14:04:34.210Z,11.31
2022-12-26T14:07:22.404Z,11.34
2022-12-26T14:09:53.186Z,11.32
2022-12-26T14:12:50.710Z,11.38
2022-12-26T14:15:28.387Z,11.40
2022-12-26T14:18:08.456Z,11.42
2022-12-26T14:21:00.245Z,11.42
2022-12-26T14:23:36.479Z,11.39
2022-12-26T14:26:32.832Z,11.36
2022-12-26T14:29:29.437Z,11.34
2022-12-26T14:32:43.236Z,11.27
2022-12-26T14:35:27.947Z,11.20
2022-12-26T14:38:22.774Z,11.15
2022-12-26T14:41:06.074Z,11.13
2022-12-26T14:43:38.288Z,11.07
2022-12-26T14:46:32.782Z,11.10
2022-12-26T14:49:00.955Z,11.09
2022-12-26T14:51:30.670Z,11.07
2022-12-26T14:54:16.814Z,11.06
2022-12-26T14:56:43.364Z,11.05
2022-12-26T14:59:29.789Z,11.04
2022-12-26T15:02:28.476Z,11.00
2022-12-26T15:05:11.470Z,10.97
2022-12-26T15:08:07.597Z,10.94
2022-12-26T15:10:55.665Z,10.91
2022-12-26T15:13:55.451Z,10.90
2022-12-26T15:16:27.758Z,10.87
2022-12-26T15:19:15.548Z,10.83
2022-12-26T15:21:51.042Z,10.84
2022-12-26T15:25:16.406Z,10.80
2022-12-26T15:28:00.345Z,10.77
2022-12-26T15:30:50.911Z,10.75
2022-12-26T15:33:29.392Z,10.69
2022-12-26T15:36:22.620Z,10.65
2022-12-26T15:38:59.079Z,10.65
2022-12-26T15:41:35.994Z,10.62
2022-12-26T15:44:18.731Z,10.62
2022-12-26T15:47:08.584Z,10.62
2022-12-26T15:49:53.698Z,10.64
2022-12-26T15:52:44.255Z,10.63
2022-12-26T15:55:29.625Z,10.62
2022-12-26T15:57:59.364Z,10.61
2022-12-26T16:00:27.094Z,10.58
2022-12-26T16:03:09.020Z,10.56
2022-12-26T16:05:44.059Z,10.55
2022-12-26T16:08:14.344Z,10.52
2022-12-26T16:10:41.141Z,10.48
2022-12-26T16:13:13.517Z,10.46
2022-12-26T16:15:51.233Z,10.46
2022-12-26T16:18:21.029Z,10.47
2022-12-26T16:21:14.699Z,10.43
2022-12-26T16:23:42.255Z,10.39
2022-12-26T16:26:17.095Z,10.38
2022-12-26T16:28:43.863Z,10.36
2022-12-26T16:31:17.989Z,10.35
2022-12-26T16:33:44.407Z,10.32
2022-12-26T16:36:21.358Z,10.28
2022-12-26T16:38:48.151Z,10.27
2022-12-26T16:41:24.047Z,10.24
2022-12-26T16:43:51.632Z,10.22
2022-12-26T16:46:19.114Z,10.19
2022-12-26T16:48:48.710Z,10.18
2022-12-26T16:51:33.710Z,10.14
2022-12-26T16:54:20.669Z,10.08
2022-12-26T16:57:01.071Z,10.09
2022-12-26T16:59:36.400Z,10.07
2022-12-26T17:02:03.111Z,10.06
2022-12-26T17:04:30.392Z,10.04
2022-12-26T17:07:08.185Z,10.04
2022-12-26T17:09:40.334Z,10.04
2022-12-26T17:12:08.674Z,10.00
2022-12-26T17:14:37.379Z,9.93
2022-12-26T17:17:06.585Z,9.91
2022-12-26T17:19:35.826Z,9.82
2022-12-26T17:22:14.517Z,9.71
2022-12-26T17:24:42.337Z,9.63
2022-12-26T17:27:24.735Z,9.48
2022-12-26T17:29:57.548Z,9.43
2022-12-26T17:32:33.185Z,9.20
2022-12-26T17:35:06.010Z,9.29
2022-12-26T17:37:32.997Z,9.20
2022-12-26T17:40:07.070Z,9.16
2022-12-26T17:42:47.668Z,9.10
2022-12-26T17:45:19.755Z,9.03
2022-12-26T17:47:46.297Z,8.92
2022-12-26T17:50:13.101Z,8.94
2022-12-26T17:52:39.584Z,8.86
2022-12-26T17:55:13.941Z,8.77
2022-12-26T17:57:40.329Z,8.71
2022-12-26T18:00:14.901Z,8.71
2022-12-26T18:02:41.396Z,8.66
2022-12-26T18:05:08.162Z,8.60
2022-12-26T18:07:34.587Z,8.58
2022-12-26T18:10:02.771Z,8.55
2022-12-26T18:12:29.309Z,8.48
2022-12-26T18:15:01.388Z,8.38
2022-12-26T18:17:31.988Z,8.31
2022-12-26T18:19:58.901Z,8.26
2022-12-26T18:22:25.357Z,8.24
2022-12-26T18:24:51.801Z,8.18
2022-12-26T18:27:28.105Z,8.18
2022-12-26T18:29:54.518Z,8.11
2022-12-26T18:32:28.268Z,8.07
2022-12-26T18:34:54.999Z,8.10
2022-12-26T18:37:23.136Z,8.08
2022-12-26T18:39:49.568Z,8.04
2022-12-26T18:42:17.008Z,8.05
2022-12-26T18:44:43.871Z,8.05
2022-12-26T18:47:16.385Z,8.01
2022-12-26T18:49:43.401Z,7.95
2022-12-26T18:52:10.633Z,7.94
2022-12-26T18:54:38.897Z,7.91
2022-12-26T18:57:07.055Z,7.91
2022-12-26T18:59:33.876Z,7.90
2022-12-26T19:02:00.542Z,7.91
2022-12-26T19:04:27.025Z,7.87
2022-12-26T19:06:53.708Z,7.83
2022-12-26T19:09:20.226Z,7.85
2022-12-26T19:11:46.658Z,7.79
2022-12-26T19:14:21.972Z,7.79
2022-12-26T19:16:48.457Z,7.81
2022-12-26T19:19:15.000Z,7.79
2022-12-26T19:21:42.540Z,7.76
2022-12-26T19:24:11.418Z,7.75
2022-12-26T19:26:37.819Z,7.73
2022-12-26T19:29:04.248Z,7.69
2022-12-26T19:31:30.700Z,7.65
2022-12-26T19:33:58.724Z,7.64
2022-12-26T19:36:25.195Z,7.62
2022-12-26T19:38:55.116Z,7.63
2022-12-26T19:41:22.071Z,7.56
2022-12-26T19:43:48.662Z,7.57
2022-12-26T19:46:15.794Z,7.56
2022-12-26T19:48:42.809Z,7.55
2022-12-26T19:51:11.600Z,7.53
2022-12-26T19:53:38.657Z,7.49
2022-12-26T19:56:15.605Z,7.46
2022-12-26T19:58:42.320Z,7.40
2022-12-26T20:01:28.896Z,7.37
2022-12-26T20:03:57.049Z,7.35
2022-12-26T20:06:25.173Z,7.32
2022-12-26T20:08:51.989Z,7.27
2022-12-26T20:11:21.375Z,7.25
2022-12-26T20:13:48.319Z,7.21
2022-12-26T20:16:45.920Z,7.17
2022-12-26T20:19:04.254Z,7.12
2022-12-26T20:21:30.724Z,7.06
2022-12-26T20:23:58.339Z,7.02
2022-12-26T20:26:25.845Z,7.00
2022-12-26T20:28:56.375Z,6.93
2022-12-26T20:31:23.245Z,6.90
2022-12-26T20:33:50.836Z,6.86
2022-12-26T20:36:19.705Z,6.82
2022-12-26T20:38:46.403Z,6.78
2022-12-26T20:41:13.354Z,6.79
2022-12-26T20:43:40.108Z,6.77
2022-12-26T20:46:12.738Z,6.75
2022-12-26T20:48:39.173Z,6.74
2022-12-26T20:51:07.937Z,6.73
2022-12-26T20:53:35.050Z,6.69
2022-12-26T20:56:01.851Z,6.64
2022-12-26T20:58:29.815Z,6.61
2022-12-26T21:00:58.242Z,6.59
2022-12-26T21:03:25.642Z,6.56
2022-12-26T21:05:52.496Z,6.53
2022-12-26T21:08:19.533Z,6.49
2022-12-26T21:10:46.158Z,6.46
2022-12-26T21:13:12.988Z,6.44
2022-12-26T21:15:39.958Z,6.39
2022-12-26T21:18:06.374Z,6.37
2022-12-26T21:20:32.859Z,6.34
2022-12-26T21:22:59.323Z,6.31
2022-12-26T21:25:25.773Z,6.23
2022-12-26T21:27:56.088Z,6.20
2022-12-26T21:30:25.359Z,6.14
2022-12-26T21:32:51.950Z,6.10
2022-12-26T21:35:18.425Z,6.07
2022-12-26T21:37:54.016Z,6.05
2022-12-26T21:40:23.533Z,6.01
2022-12-26T21:42:49.922Z,6.00
2022-12-26T21:45:16.421Z,6.00
2022-12-26T21:47:42.850Z,6.01
2022-12-26T21:50:09.382Z,6.00
2022-12-26T21:52:35.773Z,5.99
2022-12-26T21:55:20.889Z,5.97
2022-12-26T21:57:47.328Z,5.96
2022-12-26T22:00:14.187Z,5.94
2022-12-26T22:02:59.220Z,5.94
2022-12-26T22:05:29.366Z,5.92
2022-12-26T22:07:57.983Z,5.90
2022-12-26T22:10:44.368Z,5.89
2022-12-26T22:13:10.826Z,5.88
2022-12-26T22:16:03.788Z,5.88
2022-12-26T22:18:31.898Z,5.87
2022-12-26T22:21:15.710Z,5.85
2022-12-26T22:23:42.994Z,5.84
2022-12-26T22:26:11.496Z,5.86
2022-12-26T22:28:38.402Z,5.86
2022-12-26T22:31:05.421Z,5.87
2022-12-26T22:33:32.026Z,5.87
2022-12-26T22:36:06.470Z,5.87
2022-12-26T22:38:33.564Z,5.88
2022-12-26T22:41:00.396Z,5.89
2022-12-26T22:43:27.471Z,5.87
2022-12-26T22:45:54.409Z,5.87
2022-12-26T22:48:21.265Z,5.87
2022-12-26T22:50:51.484Z,5.86
2022-12-26T22:53:18.018Z,5.85
2022-12-26T22:55:49.180Z,5.84
2022-12-26T22:58:16.925Z,5.82
2022-12-26T23:00:44.604Z,5.81
2022-12-26T23:03:11.818Z,5.78
2022-12-26T23:05:39.180Z,5.72
2022-12-26T23:08:07.293Z,5.68
2022-12-26T23:10:34.782Z,5.67
2022-12-26T23:13:01.818Z,5.63
2022-12-26T23:15:28.800Z,5.60
2022-12-26T23:18:26.688Z,5.54
2022-12-26T23:21:12.472Z,5.49
2022-12-26T23:23:39.411Z,5.45
2022-12-26T23:26:05.936Z,5.41
2022-12-26T23:28:51.017Z,5.39
2022-12-26T23:31:17.491Z,5.36
2022-12-26T23:33:44.000Z,5.33
2022-12-26T23:36:10.501Z,5.30
2022-12-26T23:38:37.019Z,5.29
2022-12-26T23:41:03.583Z,5.27
2022-12-26T23:43:30.145Z,5.26
2022-12-26T23:45:56.654Z,5.22
2022-12-26T23:48:23.111Z,5.21
2022-12-26T23:50:49.658Z,5.19
2022-12-26T23:53:16.214Z,5.17
2022-12-26T23:55:42.792Z,5.15
2022-12-26T23:58:09.321Z,5.15
